createdAt,value
2018-08-27T00:00:40.249Z,14.70
2018-08-27T00:03:07.957Z,14.60
2018-08-27T00:05:35.677Z,14.50
2018-08-27T00:08:03.414Z,14.50
2018-08-27T00:10:31.140Z,14.50
2018-08-27T00:12:58.871Z,14.50
2018-08-27T00:15:26.606Z,14.50
2018-08-27T00:17:54.306Z,14.40
2018-08-27T00:20:22.021Z,14.50
2018-08-27T00:22:49.733Z,14.50
2018-08-27T00:25:17.459Z,14.40
2018-08-27T00:27:45.281Z,14.40
2018-08-27T00:30:13.005Z,14.40
2018-08-27T00:32:40.749Z,14.50
2018-08-27T00:35:08.446Z,14.50
2018-08-27T00:37:36.165Z,14.50
2018-08-27T00:40:03.913Z,14.50
2018-08-27T00:42:31.637Z,14.50
2018-08-27T00:44:59.341Z,14.60
2018-08-27T00:47:27.059Z,14.40
2018-08-27T00:49:54.766Z,14.40
2018-08-27T00:52:22.490Z,14.40
2018-08-27T00:54:50.233Z,14.40
2018-08-27T00:57:18.267Z,14.40
2018-08-27T00:59:45.989Z,14.30
2018-08-27T01:02:13.705Z,14.30
2018-08-27T01:04:41.401Z,14.30
2018-08-27T01:07:09.125Z,14.30
2018-08-27T01:09:36.869Z,14.30
2018-08-27T01:12:04.646Z,14.40
2018-08-27T01:14:32.360Z,14.40
2018-08-27T01:17:00.086Z,14.40
2018-08-27T01:19:27.793Z,14.50
2018-08-27T01:21:55.525Z,14.50
2018-08-27T01:24:23.289Z,14.40
2018-08-27T01:26:51.001Z,14.40
2018-08-27T01:29:18.725Z,14.40
2018-08-27T01:31:51.548Z,14.40
2018-08-27T01:34:19.278Z,14.40
2018-08-27T01:36:46.977Z,14.40
2018-08-27T01:39:14.689Z,14.30
2018-08-27T01:41:42.408Z,14.30
2018-08-27T01:44:10.173Z,14.30
2018-08-27T01:46:37.873Z,14.30
2018-08-27T01:49:05.590Z,14.40
2018-08-27T01:51:33.304Z,14.30
2018-08-27T01:54:01.021Z,14.30
2018-08-27T01:56:28.738Z,14.40
2018-08-27T01:58:56.438Z,14.50
2018-08-27T02:01:24.217Z,14.50
2018-08-27T02:03:51.921Z,14.40
2018-08-27T02:06:19.693Z,14.50
2018-08-27T02:08:47.389Z,14.80
2018-08-27T02:11:15.117Z,15.30
2018-08-27T02:13:42.841Z,15.90
2018-08-27T02:16:10.561Z,16.50
2018-08-27T02:18:38.284Z,16.40
2018-08-27T02:21:06.062Z,16.60
2018-08-27T02:23:33.831Z,16.90
2018-08-27T02:26:01.628Z,17.00
2018-08-27T02:28:29.338Z,16.80
2018-08-27T02:30:57.139Z,16.80
2018-08-27T02:33:24.841Z,16.90
2018-08-27T02:35:52.565Z,16.80
2018-08-27T02:38:20.285Z,16.80
2018-08-27T02:40:48.013Z,16.80
2018-08-27T02:43:15.742Z,16.80
2018-08-27T02:45:43.474Z,17.00
2018-08-27T02:48:11.169Z,16.90
2018-08-27T02:50:38.889Z,16.80
2018-08-27T02:53:06.601Z,16.80
2018-08-27T02:55:34.301Z,16.90
2018-08-27T02:58:02.022Z,16.90
2018-08-27T03:00:29.733Z,16.80
2018-08-27T03:02:57.457Z,16.90
2018-08-27T03:05:25.168Z,16.80
2018-08-27T03:07:52.885Z,16.90
2018-08-27T03:10:20.589Z,17.10
2018-08-27T03:12:48.324Z,16.90
2018-08-27T03:15:16.034Z,16.90
2018-08-27T03:17:43.758Z,16.80
2018-08-27T03:20:11.462Z,16.80
2018-08-27T03:22:39.193Z,17.00
2018-08-27T03:25:07.018Z,16.80
2018-08-27T03:27:34.785Z,16.90
2018-08-27T03:30:02.683Z,16.80
2018-08-27T03:32:30.402Z,17.20
2018-08-27T03:34:58.121Z,17.20
2018-08-27T03:37:25.821Z,17.10
2018-08-27T03:39:53.537Z,17.00
2018-08-27T03:42:21.270Z,17.10
2018-08-27T03:44:49.018Z,17.10
2018-08-27T03:47:16.790Z,17.10
2018-08-27T03:49:44.517Z,17.00
2018-08-27T03:52:12.406Z,17.00
2018-08-27T03:54:40.156Z,17.30
2018-08-27T03:57:07.882Z,17.30
2018-08-27T03:59:35.631Z,17.20
2018-08-27T04:02:03.510Z,17.20
2018-08-27T04:04:31.253Z,17.30
2018-08-27T04:06:58.978Z,17.10
2018-08-27T04:09:26.693Z,17.10
2018-08-27T04:11:54.465Z,17.20
2018-08-27T04:14:22.192Z,17.20
2018-08-27T04:16:49.959Z,17.10
2018-08-27T04:19:17.687Z,17.00
2018-08-27T04:21:45.437Z,17.10
2018-08-27T04:24:13.162Z,17.20
2018-08-27T04:26:40.916Z,17.10
2018-08-27T04:29:08.646Z,17.10
2018-08-27T04:31:36.398Z,17.10
2018-08-27T04:34:04.122Z,17.00
2018-08-27T04:36:31.865Z,17.00
2018-08-27T04:38:59.592Z,17.00
2018-08-27T04:41:27.345Z,17.00
2018-08-27T04:43:55.146Z,17.10
2018-08-27T04:46:22.921Z,17.20
2018-08-27T04:48:50.686Z,17.30
2018-08-27T04:51:18.413Z,17.20
2018-08-27T04:53:46.677Z,17.20
2018-08-27T04:56:14.406Z,17.20
2018-08-27T04:58:44.189Z,17.20
2018-08-27T05:01:11.926Z,17.20
2018-08-27T05:03:39.675Z,17.10
2018-08-27T05:06:07.418Z,17.30
2018-08-27T05:08:35.162Z,17.30
2018-08-27T05:11:02.904Z,17.30
2018-08-27T05:13:30.804Z,17.30
2018-08-27T05:15:58.534Z,17.40
2018-08-27T05:18:26.293Z,17.40
2018-08-27T05:20:54.190Z,17.40
2018-08-27T05:23:21.941Z,17.40
2018-08-27T05:25:49.669Z,17.60
2018-08-27T05:28:17.422Z,17.50
2018-08-27T05:30:45.141Z,17.50
2018-08-27T05:33:12.862Z,17.60
2018-08-27T05:35:40.615Z,17.60
2018-08-27T05:38:08.385Z,17.60
2018-08-27T05:40:36.124Z,17.70
2018-08-27T05:43:03.858Z,17.60
2018-08-27T05:45:31.605Z,17.60
2018-08-27T05:47:59.354Z,17.50
2018-08-27T05:50:27.102Z,17.50
2018-08-27T05:52:54.834Z,17.40
2018-08-27T05:55:22.581Z,18.10
2018-08-27T05:57:50.314Z,18.60
2018-08-27T06:00:18.066Z,19.30
2018-08-27T06:02:45.795Z,21.20
2018-08-27T06:05:13.553Z,20.00
2018-08-27T06:07:41.274Z,18.80
2018-08-27T06:10:09.181Z,18.60
2018-08-27T06:12:37.189Z,18.80
2018-08-27T06:15:05.642Z,19.10
2018-08-27T06:17:33.362Z,19.20
2018-08-27T06:20:01.118Z,19.00
2018-08-27T06:22:28.910Z,19.30
2018-08-27T06:24:56.716Z,18.90
2018-08-27T06:27:24.410Z,18.60
2018-08-27T06:29:52.158Z,18.60
2018-08-27T06:32:19.892Z,18.30
2018-08-27T06:34:47.645Z,18.10
2018-08-27T06:37:15.402Z,18.00
2018-08-27T06:39:43.160Z,18.00
2018-08-27T06:42:10.918Z,18.10
2018-08-27T06:44:38.656Z,18.10
2018-08-27T06:47:06.550Z,18.30
2018-08-27T06:49:34.269Z,18.70
2018-08-27T06:52:02.050Z,18.90
2018-08-27T06:54:30.027Z,18.80
2018-08-27T06:56:57.779Z,18.70
2018-08-27T06:59:25.534Z,19.10
2018-08-27T07:01:53.310Z,19.20
2018-08-27T07:04:21.038Z,19.50
2018-08-27T07:06:48.770Z,20.30
2018-08-27T07:09:16.526Z,20.10
2018-08-27T07:11:44.293Z,20.50
2018-08-27T07:14:12.361Z,20.30
2018-08-27T07:16:40.091Z,20.10
2018-08-27T07:19:07.862Z,20.10
2018-08-27T07:21:35.577Z,20.10
2018-08-27T07:24:03.367Z,19.80
2018-08-27T07:26:31.093Z,19.70
2018-08-27T07:28:58.854Z,19.80
2018-08-27T07:31:26.577Z,19.60
2018-08-27T07:33:54.569Z,19.60
2018-08-27T07:36:22.364Z,19.90
2018-08-27T07:38:50.102Z,20.10
2018-08-27T07:41:17.827Z,20.40
2018-08-27T07:43:45.590Z,20.20
2018-08-27T07:46:13.346Z,20.70
2018-08-27T07:48:41.085Z,21.50
2018-08-27T07:51:08.876Z,21.00
2018-08-27T07:53:36.601Z,21.10
2018-08-27T07:56:04.633Z,20.80
2018-08-27T07:58:32.431Z,20.70
2018-08-27T08:01:00.114Z,20.10
2018-08-27T08:03:27.843Z,20.60
2018-08-27T08:05:55.607Z,20.70
2018-08-27T08:08:23.347Z,20.90
2018-08-27T08:10:51.089Z,20.70
2018-08-27T08:13:18.870Z,20.80
2018-08-27T08:15:46.601Z,20.60
2018-08-27T08:18:18.837Z,20.60
2018-08-27T08:20:46.893Z,20.50
2018-08-27T08:23:15.274Z,20.50
2018-08-27T08:25:43.005Z,20.90
2018-08-27T08:28:10.810Z,20.90
2018-08-27T08:30:38.539Z,21.10
2018-08-27T08:33:06.368Z,20.90
2018-08-27T08:35:34.274Z,21.00
2018-08-27T08:38:02.015Z,20.80
2018-08-27T08:40:29.771Z,20.80
2018-08-27T08:42:57.498Z,20.70
2018-08-27T08:45:25.260Z,20.80
2018-08-27T08:47:53.030Z,20.80
2018-08-27T08:50:21.285Z,21.00
2018-08-27T08:52:49.018Z,20.90
2018-08-27T08:55:16.793Z,20.90
2018-08-27T08:57:44.527Z,21.00
2018-08-27T09:00:12.306Z,20.70
2018-08-27T09:02:40.041Z,20.80
2018-08-27T09:05:07.818Z,20.80
2018-08-27T09:07:35.549Z,20.70
2018-08-27T09:10:03.322Z,20.40
2018-08-27T09:12:31.080Z,20.60
2018-08-27T09:14:58.851Z,20.60
2018-08-27T09:17:26.595Z,20.70
2018-08-27T09:19:54.441Z,20.60
2018-08-27T09:22:22.165Z,20.50
2018-08-27T09:24:49.923Z,20.60
2018-08-27T09:27:17.653Z,20.60
2018-08-27T09:29:45.582Z,20.40
2018-08-27T09:32:13.479Z,20.60
2018-08-27T09:34:41.238Z,20.60
2018-08-27T09:37:09.028Z,20.70
2018-08-27T09:39:36.717Z,20.70
2018-08-27T09:42:04.626Z,20.90
2018-08-27T09:44:32.346Z,20.50
2018-08-27T09:47:00.163Z,20.60
2018-08-27T09:49:27.885Z,20.70
2018-08-27T09:51:55.639Z,20.80
2018-08-27T09:54:23.362Z,20.90
2018-08-27T09:56:51.185Z,20.90
2018-08-27T09:59:18.935Z,20.80
2018-08-27T10:01:51.993Z,21.00
2018-08-27T10:04:19.713Z,21.20
2018-08-27T10:06:47.435Z,21.10
2018-08-27T10:09:15.186Z,21.30
2018-08-27T10:11:42.938Z,21.20
2018-08-27T10:14:10.710Z,21.10
2018-08-27T10:16:38.437Z,21.00
2018-08-27T10:19:06.297Z,20.90
2018-08-27T10:21:34.021Z,21.00
2018-08-27T10:24:01.770Z,21.00
2018-08-27T10:26:29.614Z,20.90
2018-08-27T10:28:57.278Z,21.00
2018-08-27T10:31:25.006Z,21.10
2018-08-27T10:33:52.835Z,21.20
2018-08-27T10:36:20.570Z,21.30
2018-08-27T10:38:48.304Z,21.50
2018-08-27T10:41:16.053Z,21.40
2018-08-27T10:43:43.794Z,21.40
2018-08-27T10:46:11.548Z,21.60
2018-08-27T10:48:39.280Z,21.90
2018-08-27T10:51:07.096Z,21.90
2018-08-27T10:53:34.789Z,22.00
2018-08-27T10:56:02.549Z,22.20
2018-08-27T10:58:30.369Z,22.30
2018-08-27T11:00:58.017Z,22.10
2018-08-27T11:03:25.782Z,22.50
2018-08-27T11:05:53.514Z,22.80
2018-08-27T11:08:21.278Z,22.80
2018-08-27T11:10:49.193Z,22.80
2018-08-27T11:13:16.874Z,22.70
2018-08-27T11:15:44.621Z,23.20
2018-08-27T11:18:12.386Z,23.40
2018-08-27T11:20:40.264Z,23.90
2018-08-27T11:23:08.046Z,23.60
2018-08-27T11:25:35.802Z,24.10
2018-08-27T11:28:03.777Z,24.00
2018-08-27T11:30:31.523Z,24.10
2018-08-27T11:32:59.350Z,23.60
2018-08-27T11:35:27.030Z,23.50
2018-08-27T11:37:54.774Z,23.70
2018-08-27T11:40:22.510Z,24.00
2018-08-27T11:42:50.253Z,23.90
2018-08-27T11:45:17.981Z,24.00
2018-08-27T11:47:45.725Z,23.90
2018-08-27T11:50:13.479Z,24.00
2018-08-27T11:52:41.198Z,23.80
2018-08-27T11:55:09.499Z,24.10
2018-08-27T11:57:37.320Z,23.90
2018-08-27T12:00:05.334Z,23.80
2018-08-27T12:02:33.135Z,23.80
2018-08-27T12:05:00.998Z,23.90
2018-08-27T12:07:28.725Z,24.20
2018-08-27T12:09:56.478Z,24.10
2018-08-27T12:12:24.231Z,24.60
2018-08-27T12:14:51.997Z,25.70
2018-08-27T12:17:19.724Z,26.50
2018-08-27T12:19:47.478Z,26.50
2018-08-27T12:22:15.221Z,26.70
2018-08-27T12:24:42.976Z,26.00
2018-08-27T12:27:10.697Z,25.70
2018-08-27T12:29:38.450Z,25.60
2018-08-27T12:32:06.181Z,26.00
2018-08-27T12:34:33.912Z,26.20
2018-08-27T12:37:01.666Z,25.90
2018-08-27T12:39:29.414Z,26.10
2018-08-27T12:41:57.169Z,25.40
2018-08-27T12:44:24.898Z,25.10
2018-08-27T12:46:52.643Z,25.60
2018-08-27T12:49:20.381Z,25.80
2018-08-27T12:51:48.135Z,25.90
2018-08-27T12:54:15.870Z,25.20
2018-08-27T12:56:43.619Z,25.20
2018-08-27T12:59:11.364Z,25.60
2018-08-27T13:01:39.087Z,25.30
2018-08-27T13:04:06.834Z,25.50
2018-08-27T13:06:34.561Z,25.60
2018-08-27T13:09:02.334Z,25.60
2018-08-27T13:11:30.112Z,26.00
2018-08-27T13:13:57.857Z,26.70
2018-08-27T13:16:25.586Z,27.70
2018-08-27T13:18:53.356Z,27.60
2018-08-27T13:21:25.130Z,27.70
2018-08-27T13:23:52.894Z,27.00
2018-08-27T13:26:20.630Z,26.50
2018-08-27T13:28:48.362Z,26.60
2018-08-27T13:31:16.124Z,26.30
2018-08-27T13:33:44.085Z,26.30
2018-08-27T13:38:44.034Z,26.40
2018-08-27T13:41:11.782Z,26.10
2018-08-27T13:43:39.509Z,26.00
2018-08-27T13:46:07.554Z,25.90
2018-08-27T13:48:35.434Z,25.80
2018-08-27T13:51:03.105Z,26.00
2018-08-27T13:53:30.829Z,26.00
2018-08-27T13:55:58.553Z,25.80
2018-08-27T13:58:26.300Z,25.80
2018-08-27T14:00:54.045Z,26.00
2018-08-27T14:03:21.809Z,25.90
2018-08-27T14:05:49.587Z,26.10
2018-08-27T14:08:17.349Z,25.80
2018-08-27T14:10:45.423Z,25.50
2018-08-27T14:13:13.162Z,25.50
2018-08-27T14:15:40.902Z,25.50
2018-08-27T14:18:08.660Z,25.40
2018-08-27T14:20:36.401Z,25.40
2018-08-27T14:23:04.170Z,25.20
2018-08-27T14:25:31.963Z,25.20
2018-08-27T14:27:59.645Z,25.10
2018-08-27T14:30:27.419Z,25.00
2018-08-27T14:32:55.252Z,24.80
2018-08-27T14:35:22.937Z,24.70
2018-08-27T14:37:50.854Z,24.70
2018-08-27T14:40:18.624Z,24.70
2018-08-27T14:42:46.386Z,24.70
2018-08-27T14:45:14.142Z,24.70
2018-08-27T14:47:41.892Z,24.70
2018-08-27T14:50:09.665Z,24.70
2018-08-27T14:52:37.394Z,24.70
2018-08-27T14:55:05.281Z,24.60
2018-08-27T14:57:33.037Z,24.50
2018-08-27T15:00:00.771Z,24.50
2018-08-27T15:02:28.566Z,24.40
2018-08-27T15:04:56.294Z,24.30
2018-08-27T15:07:24.233Z,24.50
2018-08-27T15:09:51.958Z,24.50
2018-08-27T15:12:19.734Z,24.50
2018-08-27T15:14:47.613Z,24.40
2018-08-27T15:17:15.445Z,24.50
2018-08-27T15:19:43.254Z,24.40
2018-08-27T15:22:11.502Z,24.40
2018-08-27T15:24:39.257Z,24.30
2018-08-27T15:27:06.994Z,24.20
2018-08-27T15:29:34.758Z,24.20
2018-08-27T15:32:02.494Z,24.20
2018-08-27T15:34:30.226Z,24.20
2018-08-27T15:36:57.978Z,24.20
2018-08-27T15:39:25.710Z,24.10
2018-08-27T15:41:53.466Z,24.10
2018-08-27T15:44:21.224Z,24.10
2018-08-27T15:46:48.946Z,24.10
2018-08-27T15:49:16.718Z,24.00
2018-08-27T15:51:44.445Z,24.00
2018-08-27T15:54:12.766Z,23.80
2018-08-27T15:56:41.224Z,23.80
2018-08-27T15:59:08.985Z,23.80
2018-08-27T16:01:36.741Z,23.80
2018-08-27T16:04:04.554Z,23.70
2018-08-27T16:06:32.261Z,23.80
2018-08-27T16:09:00.139Z,23.80
2018-08-27T16:11:27.953Z,23.70
2018-08-27T16:13:55.678Z,23.80
2018-08-27T16:16:23.398Z,23.70
2018-08-27T16:18:51.178Z,23.60
2018-08-27T16:21:18.933Z,23.40
2018-08-27T16:23:46.710Z,23.40
2018-08-27T16:26:14.429Z,23.30
2018-08-27T16:28:42.190Z,23.30
2018-08-27T16:31:10.121Z,23.30
2018-08-27T16:33:38.070Z,23.30
2018-08-27T16:36:05.814Z,23.30
2018-08-27T16:38:33.537Z,23.30
2018-08-27T16:41:01.320Z,23.30
2018-08-27T16:43:29.046Z,23.30
2018-08-27T16:45:56.921Z,23.20
2018-08-27T16:48:25.178Z,23.20
2018-08-27T16:50:52.914Z,23.20
2018-08-27T16:53:20.669Z,23.20
2018-08-27T16:55:48.397Z,23.20
2018-08-27T16:58:16.181Z,23.20
2018-08-27T17:00:44.387Z,23.20
2018-08-27T17:03:12.144Z,23.00
2018-08-27T17:05:39.869Z,22.90
2018-08-27T17:08:07.602Z,22.80
2018-08-27T17:10:35.355Z,22.80
2018-08-27T17:13:03.120Z,22.80
2018-08-27T17:15:31.097Z,22.80
2018-08-27T17:17:58.823Z,22.90
2018-08-27T17:20:26.602Z,22.90
2018-08-27T17:22:54.329Z,22.90
2018-08-27T17:25:22.126Z,23.00
2018-08-27T17:27:49.884Z,23.00
2018-08-27T17:30:17.866Z,23.00
2018-08-27T17:32:45.628Z,23.00
2018-08-27T17:35:13.495Z,23.00
2018-08-27T17:37:41.254Z,23.00
2018-08-27T17:40:08.988Z,23.00
2018-08-27T17:42:36.721Z,23.00
2018-08-27T17:45:04.571Z,22.90
2018-08-27T17:47:32.237Z,22.90
2018-08-27T17:49:59.994Z,22.80
2018-08-27T17:52:27.722Z,22.80
2018-08-27T17:54:55.461Z,22.70
2018-08-27T17:57:23.185Z,22.70
2018-08-27T17:59:50.926Z,22.60
2018-08-27T18:02:18.664Z,22.60
2018-08-27T18:04:46.405Z,22.50
2018-08-27T18:07:14.433Z,22.40
2018-08-27T18:09:42.179Z,22.40
2018-08-27T18:12:09.955Z,22.30
2018-08-27T18:14:37.685Z,22.30
2018-08-27T18:17:05.457Z,22.20
2018-08-27T18:19:33.248Z,22.10
2018-08-27T18:22:01.096Z,22.10
2018-08-27T18:24:28.882Z,22.10
2018-08-27T18:26:56.615Z,22.00
2018-08-27T18:29:24.370Z,22.00
2018-08-27T18:31:52.101Z,22.00
2018-08-27T18:34:19.851Z,21.90
2018-08-27T18:36:47.579Z,21.90
2018-08-27T18:39:15.428Z,21.90
2018-08-27T18:41:43.082Z,21.70
2018-08-27T18:44:10.830Z,21.30
2018-08-27T18:46:38.558Z,21.00
2018-08-27T18:49:06.297Z,20.80
2018-08-27T18:51:34.085Z,20.70
2018-08-27T18:54:01.795Z,20.60
2018-08-27T18:56:29.555Z,20.60
2018-08-27T18:58:57.286Z,20.40
2018-08-27T19:01:30.417Z,20.30
2018-08-27T19:03:58.305Z,20.20
2018-08-27T19:06:26.094Z,20.20
2018-08-27T19:08:53.821Z,20.00
2018-08-27T19:11:21.747Z,20.00
2018-08-27T19:13:50.350Z,19.90
2018-08-27T19:16:18.085Z,19.90
2018-08-27T19:18:45.843Z,19.90
2018-08-27T19:21:13.610Z,19.90
2018-08-27T19:23:41.342Z,19.70
2018-08-27T19:26:09.153Z,19.60
2018-08-27T19:28:36.895Z,19.70
2018-08-27T19:31:04.662Z,19.60
2018-08-27T19:33:32.966Z,19.40
2018-08-27T19:36:01.612Z,19.40
2018-08-27T19:38:29.095Z,19.20
2018-08-27T19:40:56.933Z,19.00
2018-08-27T19:43:24.601Z,19.00
2018-08-27T19:45:52.370Z,18.90
2018-08-27T19:48:20.134Z,18.90
2018-08-27T19:50:47.911Z,18.90
2018-08-27T19:53:15.704Z,18.90
2018-08-27T19:55:43.457Z,18.90
2018-08-27T19:58:11.827Z,18.90
2018-08-27T20:00:39.582Z,18.80
2018-08-27T20:03:07.318Z,18.80
2018-08-27T20:05:35.078Z,18.80
2018-08-27T20:08:02.809Z,18.80
2018-08-27T20:10:30.579Z,18.80
2018-08-27T20:12:58.338Z,18.70
2018-08-27T20:15:26.082Z,18.70
2018-08-27T20:17:53.850Z,18.60
2018-08-27T20:20:21.607Z,18.60
2018-08-27T20:22:49.358Z,18.50
2018-08-27T20:25:17.115Z,18.40
2018-08-27T20:27:44.894Z,18.40
2018-08-27T20:30:12.639Z,18.40
2018-08-27T20:32:40.413Z,18.40
2018-08-27T20:35:08.883Z,18.30
2018-08-27T20:37:36.650Z,18.20
2018-08-27T20:40:04.446Z,18.20
2018-08-27T20:42:32.178Z,18.10
2018-08-27T20:44:59.975Z,18.00
2018-08-27T20:47:27.830Z,18.00
2018-08-27T20:49:55.599Z,18.00
2018-08-27T20:52:23.351Z,17.90
2018-08-27T20:54:51.086Z,17.80
2018-08-27T20:57:18.930Z,17.80
2018-08-27T20:59:46.610Z,17.80
2018-08-27T21:02:14.374Z,17.80
2018-08-27T21:04:42.122Z,17.70
2018-08-27T21:07:09.978Z,17.70
2018-08-27T21:09:37.722Z,17.70
2018-08-27T21:12:05.865Z,17.60
2018-08-27T21:14:42.174Z,17.50
2018-08-27T21:17:09.901Z,17.50
2018-08-27T21:19:37.658Z,17.50
2018-08-27T21:22:05.518Z,17.50
2018-08-27T21:24:33.272Z,17.50
2018-08-27T21:27:01.011Z,17.40
2018-08-27T21:29:28.769Z,17.40
2018-08-27T21:31:56.506Z,17.40
2018-08-27T21:34:24.229Z,17.30
2018-08-27T21:36:51.982Z,17.20
2018-08-27T21:39:19.760Z,17.20
2018-08-27T21:41:47.514Z,17.20
2018-08-27T21:44:15.241Z,17.10
2018-08-27T21:46:43.020Z,17.10
2018-08-27T21:49:10.770Z,17.00
2018-08-27T21:51:38.529Z,17.00
2018-08-27T21:54:06.293Z,16.90
2018-08-27T21:56:34.218Z,16.90
2018-08-27T21:59:01.978Z,16.90
2018-08-27T22:01:29.724Z,16.80
2018-08-27T22:04:02.957Z,16.80
2018-08-27T22:06:30.682Z,16.80
2018-08-27T22:08:58.449Z,16.80
2018-08-27T22:11:26.197Z,16.80
2018-08-27T22:13:53.961Z,16.70
2018-08-27T22:16:21.765Z,16.70
2018-08-27T22:18:49.493Z,16.70
2018-08-27T22:21:17.250Z,16.70
2018-08-27T22:23:44.973Z,16.60
2018-08-27T22:26:12.742Z,16.60
2018-08-27T22:28:40.481Z,16.60
2018-08-27T22:31:08.261Z,16.50
2018-08-27T22:33:36.026Z,16.50
2018-08-27T22:36:03.758Z,16.50
2018-08-27T22:38:31.573Z,16.50
2018-08-27T22:40:59.315Z,16.50
2018-08-27T22:43:27.098Z,16.50
2018-08-27T22:45:55.553Z,16.50
2018-08-27T22:48:23.786Z,16.50
2018-08-27T22:50:51.525Z,16.50
2018-08-27T22:53:19.258Z,16.50
2018-08-27T22:55:47.033Z,16.50
2018-08-27T22:58:14.846Z,16.50
2018-08-27T23:00:42.641Z,16.50
2018-08-27T23:03:15.749Z,16.50
2018-08-27T23:05:43.505Z,16.50
2018-08-27T23:08:11.254Z,16.40
2018-08-27T23:10:39.157Z,16.40
2018-08-27T23:13:06.925Z,16.40
2018-08-27T23:15:34.657Z,16.40
2018-08-27T23:18:02.418Z,16.30
2018-08-27T23:20:30.777Z,16.20
2018-08-27T23:22:58.575Z,16.20
2018-08-27T23:25:26.324Z,16.20
2018-08-27T23:27:54.058Z,16.20
2018-08-27T23:30:22.077Z,16.20
2018-08-27T23:32:49.829Z,16.20
2018-08-27T23:35:17.780Z,16.20
2018-08-27T23:37:45.514Z,16.20
2018-08-27T23:40:13.274Z,16.20
2018-08-27T23:42:41.007Z,16.20
2018-08-27T23:45:08.767Z,16.20
2018-08-27T23:47:36.542Z,16.10
2018-08-27T23:50:04.288Z,16.20
2018-08-27T23:52:32.127Z,16.20
2018-08-27T23:54:59.805Z,16.20
2018-08-27T23:57:27.571Z,16.20
2018-08-27T23:59:55.298Z,16.20
